sensor_id;sensor_type;location;lat;lon;timestamp;pressure;altitude;pressure_sealevel;temperature;humidity
37832;BME280;23671;38.090;-122.570;2023-04-04T00:00:29;101892.91;;;17.85;44.16
37832;BME280;23671;38.090;-122.570;2023-04-04T00:02:56;101903.75;;;17.83;43.97
37832;BME280;23671;38.090;-122.570;2023-04-04T00:05:23;101905.28;;;17.86;43.51
37832;BME280;23671;38.090;-122.570;2023-04-04T00:07:50;101898.41;;;17.83;44.21
37832;BME280;23671;38.090;-122.570;2023-04-04T00:10:18;101902.47;;;17.78;44.21
37832;BME280;23671;38.090;-122.570;2023-04-04T00:12:45;101898.09;;;17.77;43.85
37832;BME280;23671;38.090;-122.570;2023-04-04T00:15:13;101906.41;;;17.74;44.32
37832;BME280;23671;38.090;-122.570;2023-04-04T00:17:40;101898.94;;;17.68;43.66
37832;BME280;23671;38.090;-122.570;2023-04-04T00:20:07;101918.03;;;17.63;44.08
37832;BME280;23671;38.090;-122.570;2023-04-04T00:22:34;101905.25;;;17.57;43.43
37832;BME280;23671;38.090;-122.570;2023-04-04T00:25:01;101907.91;;;17.57;43.78
37832;BME280;23671;38.090;-122.570;2023-04-04T00:27:29;101904.25;;;17.49;43.65
37832;BME280;23671;38.090;-122.570;2023-04-04T00:29:56;101910.66;;;17.46;42.42
37832;BME280;23671;38.090;-122.570;2023-04-04T00:32:23;101903.63;;;17.45;43.61
37832;BME280;23671;38.090;-122.570;2023-04-04T00:34:53;101908.41;;;17.42;43.26
37832;BME280;23671;38.090;-122.570;2023-04-04T00:37:20;101906.16;;;17.37;43.48
37832;BME280;23671;38.090;-122.570;2023-04-04T00:39:47;101897.84;;;17.31;42.87
37832;BME280;23671;38.090;-122.570;2023-04-04T00:42:15;101895.97;;;17.21;43.42
37832;BME280;23671;38.090;-122.570;2023-04-04T00:44:42;101900.75;;;17.18;43.11
37832;BME280;23671;38.090;-122.570;2023-04-04T00:47:09;101896.78;;;17.12;43.98
37832;BME280;23671;38.090;-122.570;2023-04-04T00:49:37;101902.66;;;17.06;42.43
37832;BME280;23671;38.090;-122.570;2023-04-04T00:52:04;101912.03;;;17.01;43.63
37832;BME280;23671;38.090;-122.570;2023-04-04T00:54:33;101916.09;;;16.95;43.20
37832;BME280;23671;38.090;-122.570;2023-04-04T00:57:01;101905.69;;;16.92;43.02
37832;BME280;23671;38.090;-122.570;2023-04-04T00:59:31;101910.56;;;16.87;42.97
37832;BME280;23671;38.090;-122.570;2023-04-04T01:01:58;101917.75;;;16.87;43.93
37832;BME280;23671;38.090;-122.570;2023-04-04T01:04:26;101925.16;;;16.83;43.44
37832;BME280;23671;38.090;-122.570;2023-04-04T01:06:56;101924.31;;;16.83;43.42
37832;BME280;23671;38.090;-122.570;2023-04-04T01:09:24;101924.97;;;16.75;43.80
37832;BME280;23671;38.090;-122.570;2023-04-04T01:11:52;101925.63;;;16.68;43.63
37832;BME280;23671;38.090;-122.570;2023-04-04T01:14:20;101916.50;;;16.70;43.16
37832;BME280;23671;38.090;-122.570;2023-04-04T01:16:49;101916.59;;;16.59;43.68
37832;BME280;23671;38.090;-122.570;2023-04-04T01:19:42;101925.81;;;16.55;43.32
37832;BME280;23671;38.090;-122.570;2023-04-04T01:22:12;101915.44;;;16.52;42.56
37832;BME280;23671;38.090;-122.570;2023-04-04T01:24:41;101918.34;;;16.49;43.20
37832;BME280;23671;38.090;-122.570;2023-04-04T01:27:08;101918.97;;;16.42;42.87
37832;BME280;23671;38.090;-122.570;2023-04-04T01:29:35;101917.28;;;16.41;43.12
37832;BME280;23671;38.090;-122.570;2023-04-04T01:32:20;101917.53;;;16.37;43.77
37832;BME280;23671;38.090;-122.570;2023-04-04T01:37:51;101923.84;;;16.36;42.60
37832;BME280;23671;38.090;-122.570;2023-04-04T01:40:24;101916.88;;;16.24;42.83
37832;BME280;23671;38.090;-122.570;2023-04-04T01:42:53;101910.56;;;16.25;42.55
37832;BME280;23671;38.090;-122.570;2023-04-04T01:45:21;101919.91;;;16.20;41.91
37832;BME280;23671;38.090;-122.570;2023-04-04T01:47:48;101924.78;;;16.15;41.95
37832;BME280;23671;38.090;-122.570;2023-04-04T01:50:16;101921.66;;;16.10;42.31
37832;BME280;23671;38.090;-122.570;2023-04-04T01:52:43;101928.09;;;16.07;42.30
37832;BME280;23671;38.090;-122.570;2023-04-04T01:55:10;101927.28;;;15.96;43.49
37832;BME280;23671;38.090;-122.570;2023-04-04T01:57:37;101931.13;;;16.03;42.17
37832;BME280;23671;38.090;-122.570;2023-04-04T02:00:05;101931.03;;;15.93;43.05
37832;BME280;23671;38.090;-122.570;2023-04-04T02:02:33;101932.53;;;15.86;42.77
37832;BME280;23671;38.090;-122.570;2023-04-04T02:05:00;101930.16;;;15.28;40.82
37832;BME280;23671;38.090;-122.570;2023-04-04T02:07:27;101934.13;;;14.78;41.71
37832;BME280;23671;38.090;-122.570;2023-04-04T02:09:54;101936.81;;;14.89;42.96
37832;BME280;23671;38.090;-122.570;2023-04-04T02:12:21;101930.28;;;15.04;42.51
37832;BME280;23671;38.090;-122.570;2023-04-04T02:14:49;101932.22;;;15.13;42.62
37832;BME280;23671;38.090;-122.570;2023-04-04T02:17:16;101935.84;;;15.23;42.39
37832;BME280;23671;38.090;-122.570;2023-04-04T02:19:43;101923.50;;;15.22;42.68
37832;BME280;23671;38.090;-122.570;2023-04-04T02:22:10;101932.72;;;15.18;42.41
37832;BME280;23671;38.090;-122.570;2023-04-04T02:24:37;101943.59;;;15.26;41.98
37832;BME280;23671;38.090;-122.570;2023-04-04T02:27:04;101932.56;;;15.20;42.40
37832;BME280;23671;38.090;-122.570;2023-04-04T02:29:32;101929.56;;;15.13;42.38
37832;BME280;23671;38.090;-122.570;2023-04-04T02:31:59;101938.50;;;15.12;42.23
37832;BME280;23671;38.090;-122.570;2023-04-04T02:34:26;101935.13;;;15.10;42.35
37832;BME280;23671;38.090;-122.570;2023-04-04T02:36:54;101952.28;;;15.06;42.22
37832;BME280;23671;38.090;-122.570;2023-04-04T02:39:21;101951.69;;;15.03;42.17
37832;BME280;23671;38.090;-122.570;2023-04-04T02:41:48;101967.28;;;14.96;42.39
37832;BME280;23671;38.090;-122.570;2023-04-04T02:44:15;101964.00;;;14.93;41.80
37832;BME280;23671;38.090;-122.570;2023-04-04T02:46:42;101975.63;;;14.92;41.73
37832;BME280;23671;38.090;-122.570;2023-04-04T02:49:09;101973.44;;;14.86;42.15
37832;BME280;23671;38.090;-122.570;2023-04-04T02:51:36;101973.31;;;14.87;41.90
37832;BME280;23671;38.090;-122.570;2023-04-04T02:54:03;101976.44;;;14.81;41.85
37832;BME280;23671;38.090;-122.570;2023-04-04T02:56:30;101977.28;;;14.82;41.63
37832;BME280;23671;38.090;-122.570;2023-04-04T02:58:58;101967.13;;;14.76;41.55
37832;BME280;23671;38.090;-122.570;2023-04-04T03:01:25;101965.56;;;14.73;41.53
37832;BME280;23671;38.090;-122.570;2023-04-04T03:03:52;101977.25;;;14.71;41.49
37832;BME280;23671;38.090;-122.570;2023-04-04T03:06:19;101965.03;;;14.57;41.60
37832;BME280;23671;38.090;-122.570;2023-04-04T03:08:46;101973.94;;;14.56;41.48
37832;BME280;23671;38.090;-122.570;2023-04-04T03:11:17;101978.53;;;14.54;41.34
37832;BME280;23671;38.090;-122.570;2023-04-04T03:13:45;101978.91;;;14.49;41.53
37832;BME280;23671;38.090;-122.570;2023-04-04T03:16:13;101992.50;;;14.45;41.62
37832;BME280;23671;38.090;-122.570;2023-04-04T03:18:41;101987.66;;;14.39;41.78
37832;BME280;23671;38.090;-122.570;2023-04-04T03:21:09;101982.78;;;14.33;41.67
37832;BME280;23671;38.090;-122.570;2023-04-04T03:23:36;101992.63;;;14.20;42.11
37832;BME280;23671;38.090;-122.570;2023-04-04T03:26:03;101985.63;;;14.19;41.78
37832;BME280;23671;38.090;-122.570;2023-04-04T03:28:30;101988.59;;;14.14;41.98
37832;BME280;23671;38.090;-122.570;2023-04-04T03:31:01;101994.16;;;14.11;42.16
37832;BME280;23671;38.090;-122.570;2023-04-04T03:33:28;101994.19;;;13.99;42.12
37832;BME280;23671;38.090;-122.570;2023-04-04T03:35:55;101999.00;;;13.94;42.36
37832;BME280;23671;38.090;-122.570;2023-04-04T03:38:22;101994.00;;;13.89;42.10
37832;BME280;23671;38.090;-122.570;2023-04-04T03:40:49;101991.28;;;13.78;42.44
37832;BME280;23671;38.090;-122.570;2023-04-04T03:43:16;101988.34;;;13.70;42.65
37832;BME280;23671;38.090;-122.570;2023-04-04T03:45:43;101995.06;;;13.63;42.52
37832;BME280;23671;38.090;-122.570;2023-04-04T03:48:10;101992.50;;;13.61;42.37
37832;BME280;23671;38.090;-122.570;2023-04-04T03:50:37;102008.66;;;13.58;42.55
37832;BME280;23671;38.090;-122.570;2023-04-04T03:53:04;102005.78;;;13.49;42.91
37832;BME280;23671;38.090;-122.570;2023-04-04T03:55:33;102017.56;;;13.45;43.42
37832;BME280;23671;38.090;-122.570;2023-04-04T03:58:01;102014.59;;;13.37;43.15
37832;BME280;23671;38.090;-122.570;2023-04-04T04:00:28;102011.63;;;13.29;43.42
37832;BME280;23671;38.090;-122.570;2023-04-04T04:02:55;102017.47;;;13.21;43.73
37832;BME280;23671;38.090;-122.570;2023-04-04T04:05:22;102035.63;;;13.15;43.12
37832;BME280;23671;38.090;-122.570;2023-04-04T04:07:50;102022.47;;;13.13;43.34
37832;BME280;23671;38.090;-122.570;2023-04-04T04:10:18;102020.88;;;13.11;43.34
37832;BME280;23671;38.090;-122.570;2023-04-04T04:12:45;102034.25;;;13.09;43.28
37832;BME280;23671;38.090;-122.570;2023-04-04T04:15:12;102039.88;;;13.05;43.78
37832;BME280;23671;38.090;-122.570;2023-04-04T04:17:40;102034.94;;;12.99;43.89
37832;BME280;23671;38.090;-122.570;2023-04-04T04:20:08;102042.63;;;13.03;43.14
37832;BME280;23671;38.090;-122.570;2023-04-04T04:22:36;102041.47;;;13.07;43.63
37832;BME280;23671;38.090;-122.570;2023-04-04T04:25:04;102051.59;;;13.01;43.90
37832;BME280;23671;38.090;-122.570;2023-04-04T04:27:31;102050.22;;;12.95;43.29
37832;BME280;23671;38.090;-122.570;2023-04-04T04:29:58;102058.34;;;12.92;43.73
37832;BME280;23671;38.090;-122.570;2023-04-04T04:32:25;102055.41;;;12.84;43.86
37832;BME280;23671;38.090;-122.570;2023-04-04T04:34:52;102054.00;;;12.78;43.60
37832;BME280;23671;38.090;-122.570;2023-04-04T04:37:19;102050.81;;;12.73;44.25
37832;BME280;23671;38.090;-122.570;2023-04-04T04:39:47;102057.81;;;12.74;43.41
37832;BME280;23671;38.090;-122.570;2023-04-04T04:42:14;102056.22;;;12.72;43.76
37832;BME280;23671;38.090;-122.570;2023-04-04T04:44:41;102052.47;;;12.62;44.36
37832;BME280;23671;38.090;-122.570;2023-04-04T04:47:08;102066.47;;;12.64;43.83
37832;BME280;23671;38.090;-122.570;2023-04-04T04:49:35;102062.22;;;12.61;44.25
37832;BME280;23671;38.090;-122.570;2023-04-04T04:52:02;102060.44;;;12.62;43.56
37832;BME280;23671;38.090;-122.570;2023-04-04T04:54:29;102059.91;;;12.57;43.98
37832;BME280;23671;38.090;-122.570;2023-04-04T04:56:56;102057.31;;;12.55;43.76
37832;BME280;23671;38.090;-122.570;2023-04-04T04:59:23;102057.31;;;12.55;44.05
37832;BME280;23671;38.090;-122.570;2023-04-04T05:01:50;102062.19;;;12.49;43.64
37832;BME280;23671;38.090;-122.570;2023-04-04T05:04:17;102056.31;;;12.44;43.62
37832;BME280;23671;38.090;-122.570;2023-04-04T05:06:44;102072.53;;;12.39;44.31
37832;BME280;23671;38.090;-122.570;2023-04-04T05:09:11;102063.19;;;12.34;44.09
37832;BME280;23671;38.090;-122.570;2023-04-04T05:11:38;102067.00;;;12.30;43.74
37832;BME280;23671;38.090;-122.570;2023-04-04T05:14:05;102067.38;;;12.24;44.20
37832;BME280;23671;38.090;-122.570;2023-04-04T05:16:32;102070.53;;;12.16;44.52
37832;BME280;23671;38.090;-122.570;2023-04-04T05:18:59;102076.56;;;12.18;44.50
37832;BME280;23671;38.090;-122.570;2023-04-04T05:21:26;102084.53;;;12.18;44.42
37832;BME280;23671;38.090;-122.570;2023-04-04T05:23:53;102079.78;;;12.09;44.23
37832;BME280;23671;38.090;-122.570;2023-04-04T05:26:20;102092.19;;;12.09;44.66
37832;BME280;23671;38.090;-122.570;2023-04-04T05:28:48;102099.28;;;12.08;44.47
37832;BME280;23671;38.090;-122.570;2023-04-04T05:31:15;102105.81;;;12.03;44.83
37832;BME280;23671;38.090;-122.570;2023-04-04T05:33:42;102111.50;;;11.97;44.70
37832;BME280;23671;38.090;-122.570;2023-04-04T05:36:10;102109.78;;;11.96;44.75
37832;BME280;23671;38.090;-122.570;2023-04-04T05:38:38;102096.75;;;11.93;44.22
37832;BME280;23671;38.090;-122.570;2023-04-04T05:41:05;102098.75;;;11.89;44.12
37832;BME280;23671;38.090;-122.570;2023-04-04T05:43:32;102105.28;;;11.83;44.24
37832;BME280;23671;38.090;-122.570;2023-04-04T05:45:59;102102.25;;;11.75;44.46
37832;BME280;23671;38.090;-122.570;2023-04-04T05:48:26;102113.97;;;11.71;44.54
37832;BME280;23671;38.090;-122.570;2023-04-04T05:50:53;102106.88;;;11.72;44.50
37832;BME280;23671;38.090;-122.570;2023-04-04T05:53:20;102118.50;;;11.69;44.53
37832;BME280;23671;38.090;-122.570;2023-04-04T05:55:51;102120.19;;;11.70;44.66
37832;BME280;23671;38.090;-122.570;2023-04-04T05:58:18;102129.41;;;11.63;44.64
37832;BME280;23671;38.090;-122.570;2023-04-04T06:00:46;102118.19;;;11.60;44.53
37832;BME280;23671;38.090;-122.570;2023-04-04T06:03:13;102122.28;;;11.65;44.46
37832;BME280;23671;38.090;-122.570;2023-04-04T06:05:42;102122.59;;;11.59;44.67
37832;BME280;23671;38.090;-122.570;2023-04-04T06:08:09;102120.44;;;11.52;44.39
37832;BME280;23671;38.090;-122.570;2023-04-04T06:10:37;102113.63;;;11.48;45.12
37832;BME280;23671;38.090;-122.570;2023-04-04T06:13:04;102109.56;;;11.42;45.20
37832;BME280;23671;38.090;-122.570;2023-04-04T06:15:31;102112.03;;;11.45;44.70
37832;BME280;23671;38.090;-122.570;2023-04-04T06:17:58;102106.53;;;11.48;44.42
37832;BME280;23671;38.090;-122.570;2023-04-04T06:20:25;102113.16;;;11.41;44.62
37832;BME280;23671;38.090;-122.570;2023-04-04T06:22:52;102116.28;;;11.34;44.65
37832;BME280;23671;38.090;-122.570;2023-04-04T06:25:19;102103.41;;;11.28;44.94
37832;BME280;23671;38.090;-122.570;2023-04-04T06:27:46;102104.69;;;11.21;44.85
37832;BME280;23671;38.090;-122.570;2023-04-04T06:30:14;102095.25;;;11.17;45.26
37832;BME280;23671;38.090;-122.570;2023-04-04T06:32:42;102102.25;;;11.18;45.04
37832;BME280;23671;38.090;-122.570;2023-04-04T06:35:09;102111.22;;;11.15;45.10
37832;BME280;23671;38.090;-122.570;2023-04-04T06:37:36;102114.81;;;11.14;45.10
37832;BME280;23671;38.090;-122.570;2023-04-04T06:40:03;102123.00;;;11.10;45.05
37832;BME280;23671;38.090;-122.570;2023-04-04T06:42:31;102120.56;;;11.07;45.21
37832;BME280;23671;38.090;-122.570;2023-04-04T06:44:58;102117.03;;;11.06;44.83
37832;BME280;23671;38.090;-122.570;2023-04-04T06:47:25;102123.03;;;10.94;45.43
37832;BME280;23671;38.090;-122.570;2023-04-04T06:49:52;102120.13;;;10.98;45.04
37832;BME280;23671;38.090;-122.570;2023-04-04T06:52:19;102129.44;;;10.90;45.07
37832;BME280;23671;38.090;-122.570;2023-04-04T06:54:46;102137.72;;;10.84;45.37
37832;BME280;23671;38.090;-122.570;2023-04-04T06:57:13;102132.78;;;10.78;45.59
37832;BME280;23671;38.090;-122.570;2023-04-04T06:59:40;102150.94;;;10.84;45.40
37832;BME280;23671;38.090;-122.570;2023-04-04T07:02:07;102152.75;;;10.83;45.28
37832;BME280;23671;38.090;-122.570;2023-04-04T07:04:34;102141.13;;;10.86;45.24
37832;BME280;23671;38.090;-122.570;2023-04-04T07:07:03;102156.16;;;10.85;44.97
37832;BME280;23671;38.090;-122.570;2023-04-04T07:09:30;102152.81;;;10.82;45.23
37832;BME280;23671;38.090;-122.570;2023-04-04T07:11:57;102161.69;;;10.81;45.16
37832;BME280;23671;38.090;-122.570;2023-04-04T07:14:24;102165.69;;;10.72;45.56
37832;BME280;23671;38.090;-122.570;2023-04-04T07:16:52;102159.38;;;10.75;45.33
37832;BME280;23671;38.090;-122.570;2023-04-04T07:19:19;102167.31;;;10.75;45.25
37832;BME280;23671;38.090;-122.570;2023-04-04T07:21:49;102169.38;;;10.70;45.19
37832;BME280;23671;38.090;-122.570;2023-04-04T07:24:16;102166.75;;;10.70;44.96
37832;BME280;23671;38.090;-122.570;2023-04-04T07:26:43;102165.88;;;10.69;45.28
37832;BME280;23671;38.090;-122.570;2023-04-04T07:29:10;102160.06;;;10.63;44.94
37832;BME280;23671;38.090;-122.570;2023-04-04T07:31:37;102150.56;;;10.60;45.25
37832;BME280;23671;38.090;-122.570;2023-04-04T07:34:05;102148.84;;;10.59;45.08
37832;BME280;23671;38.090;-122.570;2023-04-04T07:36:32;102141.34;;;10.52;45.21
37832;BME280;23671;38.090;-122.570;2023-04-04T07:38:59;102138.13;;;10.47;45.52
37832;BME280;23671;38.090;-122.570;2023-04-04T07:41:27;102137.78;;;10.53;45.24
37832;BME280;23671;38.090;-122.570;2023-04-04T07:43:54;102138.38;;;10.58;44.99
37832;BME280;23671;38.090;-122.570;2023-04-04T07:46:21;102137.94;;;10.50;45.29
37832;BME280;23671;38.090;-122.570;2023-04-04T07:48:48;102137.19;;;10.48;45.36
37832;BME280;23671;38.090;-122.570;2023-04-04T07:51:16;102148.34;;;10.53;45.13
37832;BME280;23671;38.090;-122.570;2023-04-04T07:53:43;102145.94;;;10.48;45.01
37832;BME280;23671;38.090;-122.570;2023-04-04T07:56:10;102155.66;;;10.48;45.19
37832;BME280;23671;38.090;-122.570;2023-04-04T07:58:37;102147.91;;;10.45;44.84
37832;BME280;23671;38.090;-122.570;2023-04-04T08:01:04;102153.97;;;10.47;44.79
37832;BME280;23671;38.090;-122.570;2023-04-04T08:03:33;102150.56;;;10.45;45.15
37832;BME280;23671;38.090;-122.570;2023-04-04T08:06:00;102154.47;;;10.38;45.12
37832;BME280;23671;38.090;-122.570;2023-04-04T08:08:27;102157.88;;;10.40;44.91
37832;BME280;23671;38.090;-122.570;2023-04-04T08:10:55;102152.59;;;10.40;45.13
37832;BME280;23671;38.090;-122.570;2023-04-04T08:13:22;102148.34;;;10.37;45.28
37832;BME280;23671;38.090;-122.570;2023-04-04T08:15:49;102154.22;;;10.42;44.94
37832;BME280;23671;38.090;-122.570;2023-04-04T08:18:16;102159.75;;;10.38;45.28
37832;BME280;23671;38.090;-122.570;2023-04-04T08:20:44;102158.13;;;10.35;44.90
37832;BME280;23671;38.090;-122.570;2023-04-04T08:23:11;102167.25;;;10.30;45.39
37832;BME280;23671;38.090;-122.570;2023-04-04T08:25:39;102169.81;;;10.31;45.22
37832;BME280;23671;38.090;-122.570;2023-04-04T08:28:06;102162.91;;;10.29;45.14
37832;BME280;23671;38.090;-122.570;2023-04-04T08:30:33;102161.03;;;10.31;45.26
37832;BME280;23671;38.090;-122.570;2023-04-04T08:33:00;102151.56;;;10.27;45.21
37832;BME280;23671;38.090;-122.570;2023-04-04T08:35:27;102150.88;;;10.23;45.07
37832;BME280;23671;38.090;-122.570;2023-04-04T08:37:54;102150.22;;;10.20;45.22
37832;BME280;23671;38.090;-122.570;2023-04-04T08:40:23;102147.47;;;10.21;44.76
37832;BME280;23671;38.090;-122.570;2023-04-04T08:42:50;102149.34;;;10.19;45.34
37832;BME280;23671;38.090;-122.570;2023-04-04T08:45:18;102158.28;;;10.17;45.31
37832;BME280;23671;38.090;-122.570;2023-04-04T08:47:48;102154.81;;;10.16;45.03
37832;BME280;23671;38.090;-122.570;2023-04-04T08:50:18;102157.50;;;10.15;44.92
37832;BME280;23671;38.090;-122.570;2023-04-04T08:52:47;102159.38;;;10.13;45.12
37832;BME280;23671;38.090;-122.570;2023-04-04T08:55:14;102162.25;;;10.08;45.45
37832;BME280;23671;38.090;-122.570;2023-04-04T08:57:42;102166.00;;;10.04;45.60
37832;BME280;23671;38.090;-122.570;2023-04-04T09:00:09;102152.88;;;10.02;45.48
37832;BME280;23671;38.090;-122.570;2023-04-04T09:02:59;102165.22;;;10.02;45.17
37832;BME280;23671;38.090;-122.570;2023-04-04T09:05:31;102167.00;;;10.01;45.50
37832;BME280;23671;38.090;-122.570;2023-04-04T09:07:59;102175.22;;;9.95;45.19
37832;BME280;23671;38.090;-122.570;2023-04-04T09:10:26;102168.19;;;9.96;45.39
37832;BME280;23671;38.090;-122.570;2023-04-04T09:12:56;102162.03;;;9.95;45.16
37832;BME280;23671;38.090;-122.570;2023-04-04T09:15:24;102164.00;;;9.92;45.24
37832;BME280;23671;38.090;-122.570;2023-04-04T09:17:52;102162.38;;;9.89;45.45
37832;BME280;23671;38.090;-122.570;2023-04-04T09:20:42;102164.94;;;9.91;45.15
37832;BME280;23671;38.090;-122.570;2023-04-04T09:23:19;102162.53;;;9.86;45.53
37832;BME280;23671;38.090;-122.570;2023-04-04T09:25:51;102155.53;;;9.85;45.06
37832;BME280;23671;38.090;-122.570;2023-04-04T09:28:19;102159.31;;;9.81;45.31
37832;BME280;23671;38.090;-122.570;2023-04-04T09:30:51;102157.00;;;9.75;45.15
37832;BME280;23671;38.090;-122.570;2023-04-04T09:33:20;102155.91;;;9.79;45.53
37832;BME280;23671;38.090;-122.570;2023-04-04T09:36:09;102153.50;;;9.75;45.25
37832;BME280;23671;38.090;-122.570;2023-04-04T09:38:40;102151.09;;;9.70;45.59
37832;BME280;23671;38.090;-122.570;2023-04-04T09:41:14;102144.03;;;9.71;45.27
37832;BME280;23671;38.090;-122.570;2023-04-04T09:43:44;102146.00;;;9.67;45.22
37832;BME280;23671;38.090;-122.570;2023-04-04T09:46:12;102140.16;;;9.61;46.04
37832;BME280;23671;38.090;-122.570;2023-04-04T09:48:39;102151.50;;;9.63;45.54
37832;BME280;23671;38.090;-122.570;2023-04-04T09:51:10;102153.63;;;9.56;45.73
37832;BME280;23671;38.090;-122.570;2023-04-04T09:53:39;102160.56;;;9.57;46.06
37832;BME280;23671;38.090;-122.570;2023-04-04T09:56:08;102161.53;;;9.56;45.55
37832;BME280;23671;38.090;-122.570;2023-04-04T09:58:36;102155.53;;;9.53;45.44
37832;BME280;23671;38.090;-122.570;2023-04-04T10:01:07;102154.44;;;9.57;46.04
37832;BME280;23671;38.090;-122.570;2023-04-04T10:03:38;102152.91;;;9.53;45.76
37832;BME280;23671;38.090;-122.570;2023-04-04T10:06:09;102154.69;;;9.52;45.50
37832;BME280;23671;38.090;-122.570;2023-04-04T10:08:39;102160.13;;;9.49;45.91
37832;BME280;23671;38.090;-122.570;2023-04-04T10:11:09;102153.38;;;9.44;45.97
37832;BME280;23671;38.090;-122.570;2023-04-04T10:13:38;102156.59;;;9.33;45.72
37832;BME280;23671;38.090;-122.570;2023-04-04T10:16:07;102168.59;;;9.39;45.71
37832;BME280;23671;38.090;-122.570;2023-04-04T10:18:35;102161.50;;;9.39;45.59
37832;BME280;23671;38.090;-122.570;2023-04-04T10:21:04;102158.09;;;9.37;45.90
37832;BME280;23671;38.090;-122.570;2023-04-04T10:23:32;102153.16;;;9.31;46.16
37832;BME280;23671;38.090;-122.570;2023-04-04T10:26:00;102149.50;;;9.34;46.23
37832;BME280;23671;38.090;-122.570;2023-04-04T10:28:28;102151.44;;;9.30;45.64
37832;BME280;23671;38.090;-122.570;2023-04-04T10:36:29;102147.25;;;9.26;46.32
37832;BME280;23671;38.090;-122.570;2023-04-04T10:39:22;102144.00;;;9.21;46.07
37832;BME280;23671;38.090;-122.570;2023-04-04T10:41:51;102145.00;;;9.18;46.18
37832;BME280;23671;38.090;-122.570;2023-04-04T10:44:29;102139.66;;;9.20;46.04
37832;BME280;23671;38.090;-122.570;2023-04-04T10:47:35;102132.16;;;9.12;46.35
37832;BME280;23671;38.090;-122.570;2023-04-04T10:49:55;102140.81;;;9.14;45.62
37832;BME280;23671;38.090;-122.570;2023-04-04T10:52:27;102138.50;;;9.08;46.38
37832;BME280;23671;38.090;-122.570;2023-04-04T10:55:01;102138.50;;;9.08;45.90
37832;BME280;23671;38.090;-122.570;2023-04-04T10:57:30;102145.72;;;9.05;45.89
37832;BME280;23671;38.090;-122.570;2023-04-04T10:59:59;102144.00;;;9.04;46.20
37832;BME280;23671;38.090;-122.570;2023-04-04T11:05:21;102136.13;;;9.04;46.18
37832;BME280;23671;38.090;-122.570;2023-04-04T11:10:40;102136.41;;;8.98;46.48
37832;BME280;23671;38.090;-122.570;2023-04-04T11:15:57;102148.81;;;8.96;46.02
37832;BME280;23671;38.090;-122.570;2023-04-04T11:21:09;102149.81;;;8.93;46.24
37832;BME280;23671;38.090;-122.570;2023-04-04T11:26:35;102154.38;;;8.90;46.23
37832;BME280;23671;38.090;-122.570;2023-04-04T11:29:03;102146.78;;;8.84;46.07
37832;BME280;23671;38.090;-122.570;2023-04-04T11:31:43;102152.97;;;8.83;46.19
37832;BME280;23671;38.090;-122.570;2023-04-04T11:34:12;102153.03;;;8.81;46.23
37832;BME280;23671;38.090;-122.570;2023-04-04T11:39:13;102152.56;;;8.73;46.78
37832;BME280;23671;38.090;-122.570;2023-04-04T11:42:00;102157.69;;;8.76;46.14
37832;BME280;23671;38.090;-122.570;2023-04-04T11:44:30;102153.50;;;8.72;46.56
37832;BME280;23671;38.090;-122.570;2023-04-04T11:49:42;102156.19;;;8.71;45.94
37832;BME280;23671;38.090;-122.570;2023-04-04T11:52:17;102158.13;;;8.67;46.74
37832;BME280;23671;38.090;-122.570;2023-04-04T11:54:45;102156.69;;;8.60;46.95
37832;BME280;23671;38.090;-122.570;2023-04-04T11:57:14;102151.53;;;8.59;46.96
37832;BME280;23671;38.090;-122.570;2023-04-04T11:59:46;102157.66;;;8.59;46.58
37832;BME280;23671;38.090;-122.570;2023-04-04T12:02:19;102157.66;;;8.59;46.58
37832;BME280;23671;38.090;-122.570;2023-04-04T12:04:52;102153.38;;;8.57;46.51
37832;BME280;23671;38.090;-122.570;2023-04-04T12:07:21;102146.25;;;8.59;46.32
37832;BME280;23671;38.090;-122.570;2023-04-04T12:09:53;102150.13;;;8.52;46.29
37832;BME280;23671;38.090;-122.570;2023-04-04T12:12:22;102163.13;;;8.55;46.31
37832;BME280;23671;38.090;-122.570;2023-04-04T12:14:49;102163.19;;;8.53;46.47
37832;BME280;23671;38.090;-122.570;2023-04-04T12:17:16;102160.94;;;8.46;46.39
37832;BME280;23671;38.090;-122.570;2023-04-04T12:19:43;102151.19;;;8.48;46.70
37832;BME280;23671;38.090;-122.570;2023-04-04T12:22:10;102158.44;;;8.43;47.04
37832;BME280;23671;38.090;-122.570;2023-04-04T12:24:37;102158.44;;;8.43;46.29
37832;BME280;23671;38.090;-122.570;2023-04-04T12:27:05;102162.94;;;8.41;46.82
37832;BME280;23671;38.090;-122.570;2023-04-04T12:29:33;102158.59;;;8.40;46.59
37832;BME280;23671;38.090;-122.570;2023-04-04T12:32:04;102153.47;;;8.37;46.95
37832;BME280;23671;38.090;-122.570;2023-04-04T12:34:33;102151.69;;;8.37;46.34
37832;BME280;23671;38.090;-122.570;2023-04-04T12:37:02;102157.09;;;8.34;46.53
37832;BME280;23671;38.090;-122.570;2023-04-04T12:39:29;102151.84;;;8.34;46.96
37832;BME280;23671;38.090;-122.570;2023-04-04T12:44:30;102156.53;;;8.27;46.83
37832;BME280;23671;38.090;-122.570;2023-04-04T12:47:02;102167.91;;;8.28;46.89
37832;BME280;23671;38.090;-122.570;2023-04-04T12:52:05;102167.03;;;8.27;46.95
37832;BME280;23671;38.090;-122.570;2023-04-04T12:54:38;102175.81;;;8.28;46.53
37832;BME280;23671;38.090;-122.570;2023-04-04T12:57:06;102174.16;;;8.25;47.24
37832;BME280;23671;38.090;-122.570;2023-04-04T12:59:35;102163.75;;;8.22;46.39
37832;BME280;23671;38.090;-122.570;2023-04-04T13:02:07;102168.16;;;8.22;46.80